Nearby METAR Reports

 

KEWB - New Bedford, Massachusetts, USA
Distance from station: ESE 9mi, 15km
Updated: Wed, 20-Jan-2021 12:53pm EST
Light snow, Mostly cloudy
Light snow, Mostly cloudy
 Wind from NW
Wind: NW 8 mph , 13 km/h
Temperature: 37°F , 3°C
Wind Chill: 31°F , -1°C
Dew Point: 28°F , -2°C
Humidity: 70%
Barometer: 29.78 inHg , 1008.5 hPa
Summary: Light Snow
Clouds: Mostly cloudy
Visibility: 9 miles , 14 km
Cloud details: Mostly cloudy 1800 ft
Mostly cloudy 5000 ft
2021/01/20 17:53 KEWB 201753Z 31007KT 280V360 9SM -SN BKN018 BKN050 03/M02 A2978 RMK AO2 SNB47 SLP084 P0000 60001 T00281022 10028 21011 56025
KTAN - Taunton, Massachusetts, USA
Distance from station: NNE 11mi, 18km
Updated: Wed, 20-Jan-2021 12:52pm EST
Mostly cloudy
Mostly cloudy
 Wind from NNW
Wind: NNW 7 mph , 11 km/h
Temperature: 37°F , 3°C
Wind Chill: 32°F , 0°C
Dew Point: 27°F , -3°C
Humidity: 65%
Barometer: 29.78 inHg , 1008.5 hPa
Clouds: Mostly cloudy
Visibility: 10 miles , 16 km
Cloud details: Few Clouds 2400 ft
Partly cloudy 2900 ft
Mostly cloudy 3400 ft
2021/01/20 17:52 KTAN 201752Z AUTO 34006KT 10SM FEW024 SCT029 BKN034 03/M03 A2978 RMK AO2 SLP085 P0001 60001 T00281033 10039 21011 58017
 
KPVD - Providence/Green, Rhode Island, USA
Distance from station: W 16mi, 26km
Updated: Wed, 20-Jan-2021 12:51pm EST
Mostly cloudy
Mostly cloudy
 Wind from NNW
Wind: NNW 9 mph , 15 km/h, Gust: 22 mph , 35 km/h
Temperature: 39°F , 4°C
Wind Chill: 33°F , 1°C
Dew Point: 25°F , -4°C
Humidity: 56%
Barometer: 29.79 inHg , 1008.8 hPa
Clouds: Mostly cloudy
Visibility: 10 miles , 16 km
Cloud details: Mostly cloudy 3600 ft
Mostly cloudy 4800 ft
Mostly cloudy 30000 ft
2021/01/20 17:51 KPVD 201751Z 33008G19KT 10SM BKN036 BKN048 BKN300 04/M04 A2979 RMK AO2 SLP087 60000 T00441044 10044 21011 56025
KUUU - Newport, Rhode Island, USA
Distance from station: SSW 16mi, 27km
Updated: Wed, 20-Jan-2021 12:53pm EST
Partly cloudy
Partly cloudy
 Wind from NNW
Wind: NNW 12 mph , 19 km/h
Temperature: 37°F , 3°C
Wind Chill: 29°F , -2°C
Dew Point: 27°F , -3°C
Humidity: 65%
Barometer: 29.78 inHg , 1008.5 hPa
Clouds: Partly cloudy
Visibility: 10 miles , 16 km
Cloud details: Partly cloudy 4900 ft
2021/01/20 17:53 KUUU 201753Z AUTO 33010KT 10SM SCT049 03/M03 A2978 RMK AO2 SLP083 60000 T00281033 10033 20000 56025
 
KOQU - N. Kingston/Quon, Rhode Island, USA
Distance from station: WSW 18mi, 29km
Updated: Wed, 20-Jan-2021 12:50pm EST
Mostly cloudy
Mostly cloudy
 Wind from NW
Wind: NW 17 mph , 28 km/h
Temperature: 41°F , 5°C
Wind Chill: 33°F , 1°C
Dew Point: 23°F , -5°C
Humidity: 49%
Barometer: 29.78 inHg , 1008.5 hPa
Clouds: Mostly cloudy
Visibility: 10 miles , 16 km
Cloud details: Mostly cloudy 3000 ft
2021/01/20 17:50 KOQU 201750Z 31015KT 10SM BKN030 05/M05 A2978
KPYM - Plymouth, Massachusetts, USA
Distance from station: ENE 23mi, 37km
Updated: Wed, 20-Jan-2021 12:52pm EST
Mostly cloudy
Mostly cloudy
 Wind from WNW
Wind: WNW 10 mph , 17 km/h
Temperature: 37°F , 3°C
Wind Chill: 30°F , -1°C
Dew Point: 27°F , -3°C
Humidity: 65%
Barometer: 29.77 inHg , 1008.1 hPa
Clouds: Mostly cloudy
Visibility: 10 miles , 16 km
Cloud details: Mostly cloudy 2400 ft
2021/01/20 17:52 KPYM 201752Z AUTO 29009KT 10SM BKN024 03/M03 A2977 RMK AO2 SLP082 60000 T00281033 10028 21011 56030
 
KSFZ - Pawtucket, Rhode Island, USA
Distance from station: WNW 23mi, 38km
Updated: Wed, 20-Jan-2021 12:56pm EST
Light rain, Mostly cloudy
Light rain, Mostly cloudy
 Wind from NNW
Wind: NNW 12 mph , 19 km/h
Temperature: 36°F , 2°C
Wind Chill: 28°F , -2°C
Dew Point: 23°F , -5°C
Humidity: 60%
Barometer: 29.77 inHg , 1008.1 hPa
Summary: Light rain
Clouds: Mostly cloudy
Visibility: 10 miles , 16 km
Cloud details: Mostly cloudy 3600 ft
Mostly cloudy 4400 ft
2021/01/20 17:56 KSFZ 201756Z AUTO 34010KT 10SM -RA BKN036 BKN044 02/M05 A2977 RMK AO2 RAB47 SLP031 6//// T00171050 10033 21017 58014 FZRANO PNO $
KOWD - Norwood, Massachusetts, USA
Distance from station: N 31mi, 50km
Updated: Wed, 20-Jan-2021 12:53pm EST
Overcast
Overcast
 Wind from NW
Wind: NW 9 mph , 15 km/h
Temperature: 39°F , 4°C
Wind Chill: 33°F , 1°C
Dew Point: 21°F , -6°C
Humidity: 48%
Barometer: 29.79 inHg , 1008.8 hPa
Clouds: Overcast
Visibility: 10 miles , 16 km
Cloud details: Few Clouds 4900 ft
Overcast 7000 ft
2021/01/20 17:53 KOWD 201753Z 31008KT 10SM FEW049 OVC070 04/M06 A2979 RMK AO2 SLP087 60000 T00391061 10039 21011 58023
 
KFMH - Falmouth/Otis Ab, Massachusetts, USA
Distance from station: ESE 32mi, 51km
Updated: Wed, 20-Jan-2021 12:56pm EST
Mostly cloudy
Mostly cloudy
 Wind from NNW
Wind: NNW 12 mph , 19 km/h
Temperature: 36°F , 2°C
Wind Chill: 28°F , -2°C
Dew Point: 27°F , -3°C
Humidity: 70%
Barometer: 29.77 inHg , 1008.1 hPa
Clouds: Mostly cloudy
Visibility: 10 miles , 16 km
Cloud details: Mostly cloudy 2100 ft
2021/01/20 17:56 KFMH 201756Z 33010KT 10SM BKN021 02/M03 A2977
KMQE - East Milton, Massachusetts, USA
Distance from station: N 33mi, 53km
Updated: Wed, 20-Jan-2021 12:51pm EST

 Wind from NNW
Wind: NNW 12 mph , 19 km/h, Gust: 18 mph , 30 km/h
Temperature: 34°F , 1°C
Wind Chill: 25°F , -4°C
Dew Point: 19°F , -7°C
Humidity: 56%
Barometer: 29.75 inHg , 1007.5 hPa
2021/01/20 17:51 KMQE 201751Z AUTO 33010G16KT 01/M07 A2975 RMK AO1 SLP091 T00111067 10022 21017 57021
 
KGHG - Marshfield, Massachusetts, USA
Distance from station: NE 34mi, 55km
Updated: Wed, 20-Jan-2021 1:15pm EST
Partly cloudy
Partly cloudy
 Wind from varies
Wind: varies 5 mph , 7 km/h, Gust: 16 mph , 26 km/h
Temperature: 39°F , 4°C
Wind Chill: 35°F , 2°C
Dew Point: 23°F , -5°C
Humidity: 52%
Barometer: 29.77 inHg , 1008.1 hPa
Clouds: Partly cloudy
Visibility: 10 miles , 16 km
Cloud details: Few Clouds 3300 ft
Few Clouds 3900 ft
Partly cloudy 5000 ft
2021/01/20 18:15 KGHG 201815Z AUTO VRB04G14KT 10SM FEW033 FEW039 SCT050 04/M05 A2977 RMK AO2
KMVY - Marthas Vineyard, Massachusetts, USA
Distance from station: SE 35mi, 56km
Updated: Wed, 20-Jan-2021 12:53pm EST
Mostly cloudy
Mostly cloudy
 Wind from NNW
Wind: NNW 13 mph , 20 km/h
Temperature: 36°F , 2°C
Wind Chill: 27°F , -3°C
Dew Point: 30°F , -1°C
Humidity: 81%
Barometer: 29.77 inHg , 1008.1 hPa
Clouds: Mostly cloudy
Visibility: 10 miles , 16 km
Cloud details: Mostly cloudy 1500 ft
Mostly cloudy 1900 ft
2021/01/20 17:53 KMVY 201753Z 34011KT 10SM BKN015 BKN019 02/M01 A2977 RMK AO2 SLP079 60000 T00221011 10033 20006 58021
 
KBOS - Boston, Massachusetts, USA
Distance from station: N 44mi, 71km
Updated: Wed, 20-Jan-2021 12:54pm EST
Mostly cloudy
Mostly cloudy
 Wind from NNW
Wind: NNW 14 mph , 22 km/h
Temperature: 37°F , 3°C
Wind Chill: 28°F , -2°C
Dew Point: 18°F , -8°C
Humidity: 45%
Barometer: 29.79 inHg , 1008.8 hPa
Clouds: Mostly cloudy
Visibility: 10 miles , 16 km
Cloud details: Few Clouds 4500 ft
Partly cloudy 6500 ft
Mostly cloudy 25000 ft
2021/01/20 17:54 KBOS 201754Z 33012KT 10SM FEW045 SCT065 BKN250 03/M08 A2979 RMK AO2 SLP088 T00281078 10033 21006 56022
KHYA - Hyannis, Massachusetts, USA
Distance from station: E 44mi, 71km
Updated: Wed, 20-Jan-2021 12:56pm EST
Overcast
Overcast
 Wind from NNW
Wind: NNW 14 mph , 22 km/h, Gust: 21 mph , 33 km/h
Temperature: 37°F , 3°C
Wind Chill: 28°F , -2°C
Dew Point: 27°F , -3°C
Humidity: 65%
Barometer: 29.75 inHg , 1007.5 hPa
Clouds: Overcast
Visibility: 10 miles , 16 km
Cloud details: Few Clouds 2100 ft
Overcast 10000 ft
2021/01/20 17:56 KHYA 201756Z 33012G18KT 10SM FEW021 OVC100 03/M03 A2975 RMK AO2 SLP075 60000 T00281033 10028 21017 56032
 
KWST - Westerly, Rhode Island, USA
Distance from station: SW 44mi, 71km
Updated: Wed, 20-Jan-2021 12:53pm EST
Mostly cloudy
Mostly cloudy
 Wind from NNW
Wind: NNW 10 mph , 17 km/h
Temperature: 36°F , 2°C
Wind Chill: 29°F , -2°C
Dew Point: 25°F , -4°C
Humidity: 65%
Barometer: 29.79 inHg , 1008.8 hPa
Clouds: Mostly cloudy
Visibility: 10 miles , 16 km
Cloud details: Few Clouds 3100 ft
Mostly cloudy 4100 ft
Mostly cloudy 4900 ft
2021/01/20 17:53 KWST 201753Z AUTO 34009KT 10SM FEW031 BKN041 BKN049 02/M04 A2979 RMK AO2 SLP089 60000 T00171039 10022 21011 58021
KBID - Block Island, Rhode Island, USA
Distance from station: SSW 46mi, 74km
Updated: Wed, 20-Jan-2021 12:56pm EST
Partly cloudy
Partly cloudy
 Wind from NNW
Wind: NNW 9 mph , 15 km/h, Gust: 20 mph , 31 km/h
Temperature: 36°F , 2°C
Wind Chill: 29°F , -2°C
Dew Point: 25°F , -4°C
Humidity: 65%
Barometer: 29.80 inHg , 1009.1 hPa
Clouds: Partly cloudy
Visibility: 10 miles , 16 km
Cloud details: Partly cloudy 2100 ft
2021/01/20 17:56 KBID 201756Z AUTO 34008G17KT 10SM SCT021 02/M04 A2980 RMK AO2 SLP091 60000 T00221039 10022 20006 56021 FZRANO